sensor_id;sensor_type;location;lat;lon;timestamp;temperature;humidity
39371;DHT22;25099;51.946;4.838;2023-02-28T00:02:22;4.70;99.90
39371;DHT22;25099;51.946;4.838;2023-02-28T00:04:48;4.50;99.90
39371;DHT22;25099;51.946;4.838;2023-02-28T00:07:36;3.50;99.90
39371;DHT22;25099;51.946;4.838;2023-02-28T00:13:03;3.50;99.90
39371;DHT22;25099;51.946;4.838;2023-02-28T00:15:30;3.40;99.90
39371;DHT22;25099;51.946;4.838;2023-02-28T00:17:58;3.40;99.90
39371;DHT22;25099;51.946;4.838;2023-02-28T00:20:24;3.30;99.90
39371;DHT22;25099;51.946;4.838;2023-02-28T00:22:56;3.70;99.90
39371;DHT22;25099;51.946;4.838;2023-02-28T00:25:25;4.00;99.90
39371;DHT22;25099;51.946;4.838;2023-02-28T00:27:56;2.60;99.90
39371;DHT22;25099;51.946;4.838;2023-02-28T00:30:23;3.10;99.90
39371;DHT22;25099;51.946;4.838;2023-02-28T00:32:53;3.60;99.90
39371;DHT22;25099;51.946;4.838;2023-02-28T00:35:19;2.90;99.90
39371;DHT22;25099;51.946;4.838;2023-02-28T00:37:50;4.00;99.90
39371;DHT22;25099;51.946;4.838;2023-02-28T00:40:21;3.20;99.90
39371;DHT22;25099;51.946;4.838;2023-02-28T00:42:55;4.00;99.90
39371;DHT22;25099;51.946;4.838;2023-02-28T00:45:27;4.00;99.90
39371;DHT22;25099;51.946;4.838;2023-02-28T00:47:55;4.30;99.90
39371;DHT22;25099;51.946;4.838;2023-02-28T00:50:21;3.60;99.90
39371;DHT22;25099;51.946;4.838;2023-02-28T00:52:52;3.80;99.90
39371;DHT22;25099;51.946;4.838;2023-02-28T00:55:18;4.10;99.90
39371;DHT22;25099;51.946;4.838;2023-02-28T00:58:04;4.60;99.90
39371;DHT22;25099;51.946;4.838;2023-02-28T01:00:45;4.10;99.90
39371;DHT22;25099;51.946;4.838;2023-02-28T01:05:55;3.30;99.90
39371;DHT22;25099;51.946;4.838;2023-02-28T01:08:31;4.50;99.90
39371;DHT22;25099;51.946;4.838;2023-02-28T01:11:08;4.70;99.90
39371;DHT22;25099;51.946;4.838;2023-02-28T01:13:34;3.70;99.90
39371;DHT22;25099;51.946;4.838;2023-02-28T01:15:59;4.20;99.90
39371;DHT22;25099;51.946;4.838;2023-02-28T01:18:25;4.00;99.90
39371;DHT22;25099;51.946;4.838;2023-02-28T01:20:51;3.60;99.90
39371;DHT22;25099;51.946;4.838;2023-02-28T01:23:19;4.50;99.90
39371;DHT22;25099;51.946;4.838;2023-02-28T01:25:54;3.70;99.90
39371;DHT22;25099;51.946;4.838;2023-02-28T01:28:29;3.70;99.90
39371;DHT22;25099;51.946;4.838;2023-02-28T01:34:01;3.70;99.90
39371;DHT22;25099;51.946;4.838;2023-02-28T01:36:27;4.50;99.90
39371;DHT22;25099;51.946;4.838;2023-02-28T01:38:53;4.70;99.90
39371;DHT22;25099;51.946;4.838;2023-02-28T01:41:21;4.70;99.90
39371;DHT22;25099;51.946;4.838;2023-02-28T01:46:18;3.40;99.90
39371;DHT22;25099;51.946;4.838;2023-02-28T01:48:53;4.10;99.90
39371;DHT22;25099;51.946;4.838;2023-02-28T01:51:28;4.60;99.90
39371;DHT22;25099;51.946;4.838;2023-02-28T01:53:59;3.90;99.90
39371;DHT22;25099;51.946;4.838;2023-02-28T01:56:30;5.20;99.90
39371;DHT22;25099;51.946;4.838;2023-02-28T01:58:58;4.80;99.90
39371;DHT22;25099;51.946;4.838;2023-02-28T02:01:27;4.60;99.90
39371;DHT22;25099;51.946;4.838;2023-02-28T02:04:05;4.00;99.90
39371;DHT22;25099;51.946;4.838;2023-02-28T02:06:49;4.80;99.90
39371;DHT22;25099;51.946;4.838;2023-02-28T02:09:18;4.90;99.90
39371;DHT22;25099;51.946;4.838;2023-02-28T02:11:47;3.80;99.90
39371;DHT22;25099;51.946;4.838;2023-02-28T02:17:52;4.00;99.90
39371;DHT22;25099;51.946;4.838;2023-02-28T02:30:21;3.40;99.90
39371;DHT22;25099;51.946;4.838;2023-02-28T02:41:39;4.30;99.90
39371;DHT22;25099;51.946;4.838;2023-02-28T02:44:24;4.30;99.90
39371;DHT22;25099;51.946;4.838;2023-02-28T02:47:02;4.80;99.90
39371;DHT22;25099;51.946;4.838;2023-02-28T02:49:32;4.30;99.90
39371;DHT22;25099;51.946;4.838;2023-02-28T02:52:22;5.10;99.90
39371;DHT22;25099;51.946;4.838;2023-02-28T02:54:52;4.30;99.90
39371;DHT22;25099;51.946;4.838;2023-02-28T02:57:34;5.00;99.90
39371;DHT22;25099;51.946;4.838;2023-02-28T03:00:02;4.60;99.90
39371;DHT22;25099;51.946;4.838;2023-02-28T03:02:30;4.90;99.90
39371;DHT22;25099;51.946;4.838;2023-02-28T03:05:02;4.90;99.90
39371;DHT22;25099;51.946;4.838;2023-02-28T03:10:39;5.10;99.90
39371;DHT22;25099;51.946;4.838;2023-02-28T03:13:49;4.30;99.90
39371;DHT22;25099;51.946;4.838;2023-02-28T03:22:18;3.70;99.90
39371;DHT22;25099;51.946;4.838;2023-02-28T03:27:42;5.50;99.90
39371;DHT22;25099;51.946;4.838;2023-02-28T03:30:42;5.10;99.90
39371;DHT22;25099;51.946;4.838;2023-02-28T03:33:26;4.40;99.90
39371;DHT22;25099;51.946;4.838;2023-02-28T03:36:04;5.20;99.90
39371;DHT22;25099;51.946;4.838;2023-02-28T03:38:44;4.40;99.90
39371;DHT22;25099;51.946;4.838;2023-02-28T03:41:28;3.70;99.90
39371;DHT22;25099;51.946;4.838;2023-02-28T03:43:59;4.40;99.90
39371;DHT22;25099;51.946;4.838;2023-02-28T03:49:20;4.40;99.90
39371;DHT22;25099;51.946;4.838;2023-02-28T03:51:56;4.20;99.90
39371;DHT22;25099;51.946;4.838;2023-02-28T03:54:27;4.40;99.90
39371;DHT22;25099;51.946;4.838;2023-02-28T03:57:28;5.30;99.90
39371;DHT22;25099;51.946;4.838;2023-02-28T04:00:06;4.40;99.90
39371;DHT22;25099;51.946;4.838;2023-02-28T04:05:22;4.40;99.90
39371;DHT22;25099;51.946;4.838;2023-02-28T04:07:59;4.80;99.90
39371;DHT22;25099;51.946;4.838;2023-02-28T04:10:28;4.30;99.90
39371;DHT22;25099;51.946;4.838;2023-02-28T04:12:56;5.00;99.90
39371;DHT22;25099;51.946;4.838;2023-02-28T04:15:34;5.00;99.90
39371;DHT22;25099;51.946;4.838;2023-02-28T04:17:59;5.30;99.90
39371;DHT22;25099;51.946;4.838;2023-02-28T04:20:34;5.80;99.90
39371;DHT22;25099;51.946;4.838;2023-02-28T04:23:00;4.80;99.90
39371;DHT22;25099;51.946;4.838;2023-02-28T04:25:26;5.30;99.90
39371;DHT22;25099;51.946;4.838;2023-02-28T04:27:54;5.20;99.90
39371;DHT22;25099;51.946;4.838;2023-02-28T04:30:20;4.60;99.90
39371;DHT22;25099;51.946;4.838;2023-02-28T04:32:56;5.20;99.90
39371;DHT22;25099;51.946;4.838;2023-02-28T04:35:22;5.10;99.90
39371;DHT22;25099;51.946;4.838;2023-02-28T04:37:59;5.20;99.90
39371;DHT22;25099;51.946;4.838;2023-02-28T04:40:24;4.30;99.90
39371;DHT22;25099;51.946;4.838;2023-02-28T04:42:50;4.80;99.90
39371;DHT22;25099;51.946;4.838;2023-02-28T04:48:03;4.40;99.90
39371;DHT22;25099;51.946;4.838;2023-02-28T04:50:31;4.60;99.90
39371;DHT22;25099;51.946;4.838;2023-02-28T04:53:00;5.60;99.90
39371;DHT22;25099;51.946;4.838;2023-02-28T04:55:25;4.60;99.90
39371;DHT22;25099;51.946;4.838;2023-02-28T04:57:57;5.00;99.90
39371;DHT22;25099;51.946;4.838;2023-02-28T05:00:23;5.20;99.90
39371;DHT22;25099;51.946;4.838;2023-02-28T05:02:57;4.30;99.90
39371;DHT22;25099;51.946;4.838;2023-02-28T05:05:23;4.30;99.90
39371;DHT22;25099;51.946;4.838;2023-02-28T05:08:05;5.20;99.90
39371;DHT22;25099;51.946;4.838;2023-02-28T05:10:31;5.60;99.90
39371;DHT22;25099;51.946;4.838;2023-02-28T05:12:57;5.40;99.90
39371;DHT22;25099;51.946;4.838;2023-02-28T05:15:34;5.20;99.90
39371;DHT22;25099;51.946;4.838;2023-02-28T05:18:11;4.90;99.90
39371;DHT22;25099;51.946;4.838;2023-02-28T05:20:37;4.60;99.90
39371;DHT22;25099;51.946;4.838;2023-02-28T05:23:03;4.10;99.90
39371;DHT22;25099;51.946;4.838;2023-02-28T05:25:28;5.40;99.90
39371;DHT22;25099;51.946;4.838;2023-02-28T05:27:54;4.20;99.90
39371;DHT22;25099;51.946;4.838;2023-02-28T05:30:20;4.80;99.90
39371;DHT22;25099;51.946;4.838;2023-02-28T05:32:51;4.80;99.90
39371;DHT22;25099;51.946;4.838;2023-02-28T05:35:16;4.30;99.90
39371;DHT22;25099;51.946;4.838;2023-02-28T05:37:55;4.10;99.90
39371;DHT22;25099;51.946;4.838;2023-02-28T05:40:21;4.70;99.90
39371;DHT22;25099;51.946;4.838;2023-02-28T05:42:47;4.10;99.90
39371;DHT22;25099;51.946;4.838;2023-02-28T05:45:13;4.80;99.90
39371;DHT22;25099;51.946;4.838;2023-02-28T05:47:38;4.80;99.90
39371;DHT22;25099;51.946;4.838;2023-02-28T05:50:05;4.20;99.90
39371;DHT22;25099;51.946;4.838;2023-02-28T05:52:31;4.30;99.90
39371;DHT22;25099;51.946;4.838;2023-02-28T05:54:57;5.00;99.90
39371;DHT22;25099;51.946;4.838;2023-02-28T05:57:29;4.00;99.90
39371;DHT22;25099;51.946;4.838;2023-02-28T06:00:10;3.70;99.90
39371;DHT22;25099;51.946;4.838;2023-02-28T06:02:37;4.20;99.90
39371;DHT22;25099;51.946;4.838;2023-02-28T06:05:03;4.40;99.90
39371;DHT22;25099;51.946;4.838;2023-02-28T06:07:34;4.00;99.90
39371;DHT22;25099;51.946;4.838;2023-02-28T06:10:02;4.30;99.90
39371;DHT22;25099;51.946;4.838;2023-02-28T06:12:27;4.50;99.90
39371;DHT22;25099;51.946;4.838;2023-02-28T06:14:59;4.60;99.90
39371;DHT22;25099;51.946;4.838;2023-02-28T06:17:27;3.90;99.90
39371;DHT22;25099;51.946;4.838;2023-02-28T06:19:59;4.70;99.90
39371;DHT22;25099;51.946;4.838;2023-02-28T06:22:24;4.50;99.90
39371;DHT22;25099;51.946;4.838;2023-02-28T06:24:50;4.50;99.90
39371;DHT22;25099;51.946;4.838;2023-02-28T06:27:16;4.50;99.90
39371;DHT22;25099;51.946;4.838;2023-02-28T06:30:25;4.40;99.90
39371;DHT22;25099;51.946;4.838;2023-02-28T06:33:06;3.70;99.90
39371;DHT22;25099;51.946;4.838;2023-02-28T06:35:36;4.50;99.90
39371;DHT22;25099;51.946;4.838;2023-02-28T06:38:28;4.30;99.90
39371;DHT22;25099;51.946;4.838;2023-02-28T06:40:59;3.60;99.90
39371;DHT22;25099;51.946;4.838;2023-02-28T06:43:47;3.50;99.90
39371;DHT22;25099;51.946;4.838;2023-02-28T06:46:21;3.50;99.90
39371;DHT22;25099;51.946;4.838;2023-02-28T06:48:53;4.20;99.90
39371;DHT22;25099;51.946;4.838;2023-02-28T06:51:30;4.00;99.90
39371;DHT22;25099;51.946;4.838;2023-02-28T06:53:55;3.90;99.90
39371;DHT22;25099;51.946;4.838;2023-02-28T06:56:30;4.10;99.90
39371;DHT22;25099;51.946;4.838;2023-02-28T06:59:10;4.00;99.90
39371;DHT22;25099;51.946;4.838;2023-02-28T07:01:42;3.50;99.90
39371;DHT22;25099;51.946;4.838;2023-02-28T07:04:16;4.10;99.90
39371;DHT22;25099;51.946;4.838;2023-02-28T07:06:42;4.00;99.90
39371;DHT22;25099;51.946;4.838;2023-02-28T07:09:14;3.20;99.90
39371;DHT22;25099;51.946;4.838;2023-02-28T07:11:40;4.20;99.90
39371;DHT22;25099;51.946;4.838;2023-02-28T07:14:06;3.90;99.90
39371;DHT22;25099;51.946;4.838;2023-02-28T07:16:51;3.40;99.90
39371;DHT22;25099;51.946;4.838;2023-02-28T07:19:17;3.40;99.90
39371;DHT22;25099;51.946;4.838;2023-02-28T07:21:57;4.50;99.90
39371;DHT22;25099;51.946;4.838;2023-02-28T07:24:29;4.60;99.90
39371;DHT22;25099;51.946;4.838;2023-02-28T07:27:03;3.40;99.90
39371;DHT22;25099;51.946;4.838;2023-02-28T07:29:37;3.90;99.90
39371;DHT22;25099;51.946;4.838;2023-02-28T07:32:13;4.20;99.90
39371;DHT22;25099;51.946;4.838;2023-02-28T07:34:48;4.10;99.90
39371;DHT22;25099;51.946;4.838;2023-02-28T07:37:17;3.90;99.90
39371;DHT22;25099;51.946;4.838;2023-02-28T07:39:42;3.30;99.90
39371;DHT22;25099;51.946;4.838;2023-02-28T07:42:08;4.60;99.90
39371;DHT22;25099;51.946;4.838;2023-02-28T07:44:36;3.30;99.90
39371;DHT22;25099;51.946;4.838;2023-02-28T07:47:06;3.40;99.90
39371;DHT22;25099;51.946;4.838;2023-02-28T07:49:41;4.10;99.90
39371;DHT22;25099;51.946;4.838;2023-02-28T07:52:53;3.50;99.90
39371;DHT22;25099;51.946;4.838;2023-02-28T07:55:19;3.40;99.90
39371;DHT22;25099;51.946;4.838;2023-02-28T07:58:02;4.00;99.90
39371;DHT22;25099;51.946;4.838;2023-02-28T08:00:28;4.10;99.90
39371;DHT22;25099;51.946;4.838;2023-02-28T08:02:55;4.30;99.90
39371;DHT22;25099;51.946;4.838;2023-02-28T08:05:23;4.20;99.90
39371;DHT22;25099;51.946;4.838;2023-02-28T08:08:06;4.30;99.90
39371;DHT22;25099;51.946;4.838;2023-02-28T08:10:32;3.40;99.90
39371;DHT22;25099;51.946;4.838;2023-02-28T08:12:58;4.10;99.90
39371;DHT22;25099;51.946;4.838;2023-02-28T08:15:30;4.00;99.90
39371;DHT22;25099;51.946;4.838;2023-02-28T08:17:56;4.50;99.90
39371;DHT22;25099;51.946;4.838;2023-02-28T08:20:40;4.20;99.90
39371;DHT22;25099;51.946;4.838;2023-02-28T08:23:06;3.40;99.90
39371;DHT22;25099;51.946;4.838;2023-02-28T08:25:43;4.20;99.90
39371;DHT22;25099;51.946;4.838;2023-02-28T08:28:11;4.20;99.90
39371;DHT22;25099;51.946;4.838;2023-02-28T08:34:12;3.70;99.90
39371;DHT22;25099;51.946;4.838;2023-02-28T08:36:47;3.80;99.90
39371;DHT22;25099;51.946;4.838;2023-02-28T08:39:34;3.70;99.90
39371;DHT22;25099;51.946;4.838;2023-02-28T08:42:15;4.40;99.90
39371;DHT22;25099;51.946;4.838;2023-02-28T08:45:22;3.70;99.90
39371;DHT22;25099;51.946;4.838;2023-02-28T08:48:05;3.80;99.90
39371;DHT22;25099;51.946;4.838;2023-02-28T08:53:25;3.90;99.90
39371;DHT22;25099;51.946;4.838;2023-02-28T08:56:14;4.50;99.90
39371;DHT22;25099;51.946;4.838;2023-02-28T08:58:41;3.90;99.90
39371;DHT22;25099;51.946;4.838;2023-02-28T09:01:11;4.50;99.90
39371;DHT22;25099;51.946;4.838;2023-02-28T09:03:44;4.00;99.90
39371;DHT22;25099;51.946;4.838;2023-02-28T09:09:10;4.10;99.90
39371;DHT22;25099;51.946;4.838;2023-02-28T09:11:36;4.00;99.90
39371;DHT22;25099;51.946;4.838;2023-02-28T09:14:05;4.20;99.90
39371;DHT22;25099;51.946;4.838;2023-02-28T09:16:46;3.30;99.90
39371;DHT22;25099;51.946;4.838;2023-02-28T09:19:12;4.80;99.90
39371;DHT22;25099;51.946;4.838;2023-02-28T09:21:39;4.10;99.90
39371;DHT22;25099;51.946;4.838;2023-02-28T09:24:11;5.10;99.90
39371;DHT22;25099;51.946;4.838;2023-02-28T09:26:40;4.80;99.90
39371;DHT22;25099;51.946;4.838;2023-02-28T09:29:12;3.90;99.90
39371;DHT22;25099;51.946;4.838;2023-02-28T09:31:38;4.10;99.90
39371;DHT22;25099;51.946;4.838;2023-02-28T09:34:04;4.50;99.90
39371;DHT22;25099;51.946;4.838;2023-02-28T09:36:29;5.50;99.90
39371;DHT22;25099;51.946;4.838;2023-02-28T09:39:01;5.00;99.90
39371;DHT22;25099;51.946;4.838;2023-02-28T09:41:44;5.10;99.90
39371;DHT22;25099;51.946;4.838;2023-02-28T09:47:02;4.20;99.90
39371;DHT22;25099;51.946;4.838;2023-02-28T09:49:42;4.90;99.90
39371;DHT22;25099;51.946;4.838;2023-02-28T09:52:29;4.40;99.90
39371;DHT22;25099;51.946;4.838;2023-02-28T10:12:57;4.60;99.90
39371;DHT22;25099;51.946;4.838;2023-02-28T10:22:37;4.80;99.90
39371;DHT22;25099;51.946;4.838;2023-02-28T10:25:23;4.70;99.90
39371;DHT22;25099;51.946;4.838;2023-02-28T10:30:29;4.80;99.90
39371;DHT22;25099;51.946;4.838;2023-02-28T10:33:15;4.90;99.90
39371;DHT22;25099;51.946;4.838;2023-02-28T10:36:16;5.10;99.90
39371;DHT22;25099;51.946;4.838;2023-02-28T10:39:01;5.00;99.90
39371;DHT22;25099;51.946;4.838;2023-02-28T10:42:22;5.00;99.90
39371;DHT22;25099;51.946;4.838;2023-02-28T10:56:47;4.40;99.90
39371;DHT22;25099;51.946;4.838;2023-02-28T11:09:48;5.40;99.90
39371;DHT22;25099;51.946;4.838;2023-02-28T11:12:30;6.10;99.90
39371;DHT22;25099;51.946;4.838;2023-02-28T11:24:41;5.80;99.90
39371;DHT22;25099;51.946;4.838;2023-02-28T11:27:47;5.80;99.90
39371;DHT22;25099;51.946;4.838;2023-02-28T11:30:30;6.10;99.90
39371;DHT22;25099;51.946;4.838;2023-02-28T11:36:31;5.90;99.90
39371;DHT22;25099;51.946;4.838;2023-02-28T11:54:35;6.80;99.70
39371;DHT22;25099;51.946;4.838;2023-02-28T11:57:19;6.10;99.00
39371;DHT22;25099;51.946;4.838;2023-02-28T12:09:02;6.60;98.50
39371;DHT22;25099;51.946;4.838;2023-02-28T12:11:44;6.30;97.70
39371;DHT22;25099;51.946;4.838;2023-02-28T12:16:48;6.20;97.30
39371;DHT22;25099;51.946;4.838;2023-02-28T12:19:26;6.70;97.70
39371;DHT22;25099;51.946;4.838;2023-02-28T12:28:51;6.20;98.00
39371;DHT22;25099;51.946;4.838;2023-02-28T12:35:24;6.40;97.60
39371;DHT22;25099;51.946;4.838;2023-02-28T12:38:14;7.10;98.50
39371;DHT22;25099;51.946;4.838;2023-02-28T12:40:55;6.10;97.30
39371;DHT22;25099;51.946;4.838;2023-02-28T12:43:58;6.60;97.30
39371;DHT22;25099;51.946;4.838;2023-02-28T12:47:14;6.60;97.10
39371;DHT22;25099;51.946;4.838;2023-02-28T12:55:59;6.70;96.60
39371;DHT22;25099;51.946;4.838;2023-02-28T12:58:40;6.70;96.80
39371;DHT22;25099;51.946;4.838;2023-02-28T13:01:47;6.70;96.40
39371;DHT22;25099;51.946;4.838;2023-02-28T13:09:37;6.90;97.80
39371;DHT22;25099;51.946;4.838;2023-02-28T13:12:18;6.90;97.30
39371;DHT22;25099;51.946;4.838;2023-02-28T13:18:00;7.10;97.00
39371;DHT22;25099;51.946;4.838;2023-02-28T13:20:36;7.50;96.40
39371;DHT22;25099;51.946;4.838;2023-02-28T13:23:02;7.50;96.00
39371;DHT22;25099;51.946;4.838;2023-02-28T13:25:50;7.60;96.70
39371;DHT22;25099;51.946;4.838;2023-02-28T13:40:35;7.30;96.20
39371;DHT22;25099;51.946;4.838;2023-02-28T13:43:21;8.10;96.60
39371;DHT22;25099;51.946;4.838;2023-02-28T13:46:33;7.30;96.10
39371;DHT22;25099;51.946;4.838;2023-02-28T13:49:39;8.10;96.30
39371;DHT22;25099;51.946;4.838;2023-02-28T13:52:28;7.60;95.90
39371;DHT22;25099;51.946;4.838;2023-02-28T13:55:26;8.80;96.30
39371;DHT22;25099;51.946;4.838;2023-02-28T14:06:58;7.70;95.40
39371;DHT22;25099;51.946;4.838;2023-02-28T14:10:06;8.50;95.60
39371;DHT22;25099;51.946;4.838;2023-02-28T14:13:03;7.90;95.30
39371;DHT22;25099;51.946;4.838;2023-02-28T14:20:57;7.90;95.20
39371;DHT22;25099;51.946;4.838;2023-02-28T14:41:44;8.60;94.70
39371;DHT22;25099;51.946;4.838;2023-02-28T14:44:32;8.40;95.20
39371;DHT22;25099;51.946;4.838;2023-02-28T14:47:16;8.90;94.20
39371;DHT22;25099;51.946;4.838;2023-02-28T14:49:44;8.30;93.30
39371;DHT22;25099;51.946;4.838;2023-02-28T14:52:32;9.00;93.70
39371;DHT22;25099;51.946;4.838;2023-02-28T14:55:01;8.30;93.20
39371;DHT22;25099;51.946;4.838;2023-02-28T14:58:17;8.30;93.80
39371;DHT22;25099;51.946;4.838;2023-02-28T15:01:01;8.40;93.50
39371;DHT22;25099;51.946;4.838;2023-02-28T15:03:40;9.10;93.80
39371;DHT22;25099;51.946;4.838;2023-02-28T15:16:22;8.10;93.00
39371;DHT22;25099;51.946;4.838;2023-02-28T15:22:05;8.70;93.10
39371;DHT22;25099;51.946;4.838;2023-02-28T15:24:49;8.50;92.90
39371;DHT22;25099;51.946;4.838;2023-02-28T15:27:30;9.30;93.10
39371;DHT22;25099;51.946;4.838;2023-02-28T15:30:11;8.60;93.70
39371;DHT22;25099;51.946;4.838;2023-02-28T15:33:28;8.60;92.40
39371;DHT22;25099;51.946;4.838;2023-02-28T15:39:47;8.00;92.50
39371;DHT22;25099;51.946;4.838;2023-02-28T15:42:35;8.60;93.40
39371;DHT22;25099;51.946;4.838;2023-02-28T15:45:26;9.30;93.40
39371;DHT22;25099;51.946;4.838;2023-02-28T15:47:55;8.60;92.50
39371;DHT22;25099;51.946;4.838;2023-02-28T15:50:38;9.50;93.50
39371;DHT22;25099;51.946;4.838;2023-02-28T15:53:04;9.40;93.20
39371;DHT22;25099;51.946;4.838;2023-02-28T15:59:25;8.50;93.00
39371;DHT22;25099;51.946;4.838;2023-02-28T16:04:27;8.50;92.30
39371;DHT22;25099;51.946;4.838;2023-02-28T16:09:44;8.30;93.00
39371;DHT22;25099;51.946;4.838;2023-02-28T16:12:46;8.60;93.40
39371;DHT22;25099;51.946;4.838;2023-02-28T16:56:17;7.70;97.20
39371;DHT22;25099;51.946;4.838;2023-02-28T16:59:36;7.70;99.90
39371;DHT22;25099;51.946;4.838;2023-02-28T17:02:39;7.60;99.90
39371;DHT22;25099;51.946;4.838;2023-02-28T17:05:58;6.80;99.90
39371;DHT22;25099;51.946;4.838;2023-02-28T18:23:57;5.80;99.90
39371;DHT22;25099;51.946;4.838;2023-02-28T18:26:26;5.60;99.90
39371;DHT22;25099;51.946;4.838;2023-02-28T18:28:52;4.90;99.90
39371;DHT22;25099;51.946;4.838;2023-02-28T18:31:20;6.30;99.90
39371;DHT22;25099;51.946;4.838;2023-02-28T18:34:03;5.40;99.90
39371;DHT22;25099;51.946;4.838;2023-02-28T22:51:33;3.50;99.90
